createdAt,value
2022-09-14T00:01:25.911Z,16.84
2022-09-14T00:04:01.699Z,16.88
2022-09-14T00:06:29.202Z,16.88
2022-09-14T00:08:57.646Z,16.80
2022-09-14T00:11:25.644Z,16.79
2022-09-14T00:13:53.245Z,16.92
2022-09-14T00:16:34.599Z,16.93
2022-09-14T00:19:06.944Z,16.95
2022-09-14T00:21:35.635Z,16.96
2022-09-14T00:24:02.347Z,16.85
2022-09-14T00:26:28.905Z,16.93
2022-09-14T00:28:58.062Z,16.71
2022-09-14T00:31:25.880Z,16.84
2022-09-14T00:33:53.122Z,16.85
2022-09-14T00:36:28.499Z,16.86
2022-09-14T00:39:00.671Z,16.80
2022-09-14T00:41:32.083Z,16.70
2022-09-14T00:44:02.626Z,16.67
2022-09-14T00:46:36.653Z,16.72
2022-09-14T00:49:15.667Z,16.77
2022-09-14T00:51:59.026Z,16.74
2022-09-14T00:54:26.416Z,16.71
2022-09-14T00:56:53.606Z,16.78
2022-09-14T00:59:24.582Z,16.79
2022-09-14T01:01:51.339Z,16.73
2022-09-14T01:04:18.069Z,16.74
2022-09-14T01:07:05.227Z,16.79
2022-09-14T01:09:53.834Z,16.81
2022-09-14T01:12:37.349Z,16.69
2022-09-14T01:15:18.962Z,16.54
2022-09-14T01:18:00.647Z,16.58
2022-09-14T01:20:40.209Z,16.55
2022-09-14T01:23:06.633Z,16.56
2022-09-14T01:26:01.457Z,16.62
2022-09-14T01:28:43.570Z,16.62
2022-09-14T01:31:18.172Z,16.66
2022-09-14T01:33:53.710Z,16.63
2022-09-14T01:36:20.703Z,16.62
2022-09-14T01:38:52.526Z,16.57
2022-09-14T01:41:24.462Z,16.60
2022-09-14T01:44:04.185Z,16.59
2022-09-14T01:46:40.591Z,16.57
2022-09-14T01:49:13.757Z,16.59
2022-09-14T01:51:49.642Z,16.57
2022-09-14T01:54:42.478Z,16.63
2022-09-14T01:57:21.578Z,16.67
2022-09-14T01:59:52.259Z,16.52
2022-09-14T02:02:30.660Z,16.56
2022-09-14T02:05:09.192Z,16.66
2022-09-14T02:07:37.650Z,16.70
2022-09-14T02:10:08.941Z,16.68
2022-09-14T02:12:36.350Z,16.68
2022-09-14T02:15:04.042Z,16.71
2022-09-14T02:17:31.329Z,16.72
2022-09-14T02:20:00.886Z,16.64
2022-09-14T02:22:29.131Z,16.66
2022-09-14T02:24:55.946Z,16.71
2022-09-14T02:27:22.659Z,16.68
2022-09-14T02:29:49.753Z,16.70
2022-09-14T02:32:31.427Z,16.72
2022-09-14T02:35:20.437Z,16.71
2022-09-14T02:38:01.262Z,16.68
2022-09-14T02:40:43.454Z,16.69
2022-09-14T02:43:18.880Z,16.65
2022-09-14T02:45:51.742Z,16.66
2022-09-14T02:48:38.710Z,16.63
2022-09-14T02:51:40.518Z,16.67
2022-09-14T02:54:14.751Z,16.62
2022-09-14T02:56:41.651Z,16.63
2022-09-14T02:59:08.124Z,16.72
2022-09-14T03:01:34.663Z,16.71
2022-09-14T03:04:01.326Z,16.72
2022-09-14T03:06:27.779Z,16.72
2022-09-14T03:08:54.221Z,16.80
2022-09-14T03:11:20.729Z,16.66
2022-09-14T03:13:47.320Z,16.46
2022-09-14T03:16:17.095Z,16.46
2022-09-14T03:18:43.926Z,16.53
2022-09-14T03:21:13.165Z,16.43
2022-09-14T03:23:55.104Z,16.35
2022-09-14T03:26:22.950Z,16.38
2022-09-14T03:28:54.114Z,16.42
2022-09-14T03:31:20.978Z,16.46
2022-09-14T03:33:52.082Z,16.48
2022-09-14T03:36:19.849Z,16.42
2022-09-14T03:38:48.890Z,16.38
2022-09-14T03:41:16.096Z,16.35
2022-09-14T03:43:43.427Z,16.30
2022-09-14T03:46:12.718Z,16.31
2022-09-14T03:48:39.426Z,16.31
2022-09-14T03:51:07.526Z,16.29
2022-09-14T03:53:34.608Z,16.32
2022-09-14T03:56:01.101Z,16.37
2022-09-14T03:58:31.343Z,16.42
2022-09-14T04:01:04.335Z,16.40
2022-09-14T04:03:31.908Z,16.38
2022-09-14T04:05:58.737Z,16.35
2022-09-14T04:08:25.571Z,16.26
2022-09-14T04:10:52.146Z,16.37
2022-09-14T04:13:18.598Z,16.28
2022-09-14T04:15:45.099Z,16.28
2022-09-14T04:18:12.258Z,16.22
2022-09-14T04:20:39.043Z,16.24
2022-09-14T04:23:05.673Z,16.25
2022-09-14T04:25:32.075Z,16.20
2022-09-14T04:28:19.308Z,16.24
2022-09-14T04:30:44.988Z,16.25
2022-09-14T04:33:11.393Z,16.25
2022-09-14T04:35:37.853Z,16.27
2022-09-14T04:38:04.775Z,16.27
2022-09-14T04:40:31.465Z,16.29
2022-09-14T04:42:57.931Z,16.30
2022-09-14T04:45:24.367Z,16.34
2022-09-14T04:47:50.907Z,16.36
2022-09-14T04:50:17.334Z,16.35
2022-09-14T04:52:43.750Z,16.41
2022-09-14T04:55:10.291Z,16.45
2022-09-14T04:57:36.768Z,16.48
2022-09-14T05:00:04.242Z,16.45
2022-09-14T05:02:31.951Z,16.42
2022-09-14T05:04:58.939Z,16.40
2022-09-14T05:07:25.403Z,16.43
2022-09-14T05:09:51.818Z,16.40
2022-09-14T05:12:18.203Z,16.44
2022-09-14T05:14:44.641Z,16.49
2022-09-14T05:17:11.160Z,16.30
2022-09-14T05:19:37.584Z,16.45
2022-09-14T05:22:04.074Z,16.38
2022-09-14T05:24:30.548Z,16.35
2022-09-14T05:27:00.494Z,16.38
2022-09-14T05:29:29.591Z,16.38
2022-09-14T05:31:55.995Z,16.52
2022-09-14T05:34:22.459Z,16.51
2022-09-14T05:36:48.853Z,16.46
2022-09-14T05:39:18.693Z,16.53
2022-09-14T05:41:49.500Z,16.58
2022-09-14T05:44:15.902Z,16.55
2022-09-14T05:46:42.400Z,16.64
2022-09-14T05:49:08.841Z,16.62
2022-09-14T05:51:35.295Z,16.76
2022-09-14T05:54:01.718Z,16.75
2022-09-14T05:56:31.495Z,16.77
2022-09-14T05:58:59.276Z,16.84
2022-09-14T06:01:29.611Z,16.97
2022-09-14T06:03:58.583Z,16.96
2022-09-14T06:06:25.232Z,17.00
2022-09-14T06:08:54.079Z,17.08
2022-09-14T06:11:25.918Z,17.12
2022-09-14T06:13:54.373Z,17.05
2022-09-14T06:16:22.162Z,17.00
2022-09-14T06:18:49.493Z,17.01
2022-09-14T06:21:19.978Z,17.11
2022-09-14T06:23:47.937Z,17.04
2022-09-14T06:26:15.256Z,16.98
2022-09-14T06:28:42.488Z,17.07
2022-09-14T06:31:12.289Z,17.11
2022-09-14T06:33:42.542Z,17.20
2022-09-14T06:36:12.614Z,17.23
2022-09-14T06:38:40.510Z,17.18
2022-09-14T06:41:09.234Z,17.40
2022-09-14T06:43:38.666Z,17.36
2022-09-14T06:46:15.438Z,17.34
2022-09-14T06:48:48.416Z,17.39
2022-09-14T06:51:42.655Z,17.51
2022-09-14T06:54:11.972Z,17.66
2022-09-14T06:56:40.064Z,17.66
2022-09-14T06:59:08.228Z,17.67
2022-09-14T07:01:35.026Z,17.89
2022-09-14T07:04:01.981Z,17.98
2022-09-14T07:06:31.014Z,17.92
2022-09-14T07:08:57.624Z,17.81
2022-09-14T07:11:26.797Z,17.88
2022-09-14T07:13:58.931Z,17.84
2022-09-14T07:16:30.369Z,17.79
2022-09-14T07:18:59.105Z,17.97
2022-09-14T07:21:26.270Z,18.31
2022-09-14T07:23:53.472Z,18.39
2022-09-14T07:26:25.891Z,18.37
2022-09-14T07:28:58.469Z,18.33
2022-09-14T07:31:45.187Z,18.45
2022-09-14T07:34:13.056Z,18.62
2022-09-14T07:36:40.715Z,18.65
2022-09-14T07:39:09.764Z,18.60
2022-09-14T07:41:36.754Z,18.88
2022-09-14T07:44:06.294Z,19.00
2022-09-14T07:46:39.062Z,19.01
2022-09-14T07:49:07.337Z,19.17
2022-09-14T07:51:35.082Z,19.11
2022-09-14T07:54:01.850Z,19.52
2022-09-14T07:56:28.542Z,19.43
2022-09-14T07:59:11.441Z,19.64
2022-09-14T08:01:44.957Z,19.79
2022-09-14T08:04:11.415Z,19.76
2022-09-14T08:06:37.899Z,19.72
2022-09-14T08:09:08.875Z,19.69
2022-09-14T08:11:35.810Z,20.09
2022-09-14T08:14:09.679Z,20.15
2022-09-14T08:16:38.521Z,20.40
2022-09-14T08:19:07.726Z,20.27
2022-09-14T08:21:35.606Z,20.41
2022-09-14T08:24:04.200Z,20.14
2022-09-14T08:26:31.344Z,20.27
2022-09-14T08:29:00.468Z,20.07
2022-09-14T08:31:28.662Z,20.27
2022-09-14T08:33:57.999Z,20.23
2022-09-14T08:36:26.412Z,20.14
2022-09-14T08:38:52.810Z,20.16
2022-09-14T08:41:28.570Z,20.45
2022-09-14T08:43:59.729Z,20.16
2022-09-14T08:46:26.724Z,20.32
2022-09-14T08:48:53.686Z,20.45
2022-09-14T08:51:20.389Z,20.37
2022-09-14T08:53:52.478Z,20.26
2022-09-14T08:56:24.503Z,20.53
2022-09-14T08:59:33.172Z,20.49
2022-09-14T09:02:21.491Z,20.81
2022-09-14T09:04:55.568Z,21.03
2022-09-14T09:07:32.889Z,21.11
2022-09-14T09:09:59.710Z,21.10
2022-09-14T09:12:42.059Z,21.20
2022-09-14T09:15:26.987Z,21.52
2022-09-14T09:18:01.406Z,21.56
2022-09-14T09:20:35.856Z,21.33
2022-09-14T09:23:14.773Z,21.67
2022-09-14T09:26:12.172Z,21.82
2022-09-14T09:28:46.046Z,21.72
2022-09-14T09:31:15.116Z,22.03
2022-09-14T09:33:42.371Z,22.26
2022-09-14T09:36:12.885Z,22.52
2022-09-14T09:38:39.323Z,22.29
2022-09-14T09:41:18.011Z,22.23
2022-09-14T09:44:11.595Z,22.23
2022-09-14T09:46:47.231Z,22.03
2022-09-14T09:49:30.227Z,21.87
2022-09-14T09:52:06.463Z,21.88
2022-09-14T09:54:33.279Z,22.14
2022-09-14T09:57:03.482Z,22.04
2022-09-14T09:59:39.605Z,22.54
2022-09-14T10:02:28.686Z,22.88
2022-09-14T10:05:02.320Z,22.95
2022-09-14T10:07:31.680Z,22.88
2022-09-14T10:10:02.533Z,23.02
2022-09-14T10:12:29.941Z,23.06
2022-09-14T10:15:27.823Z,23.10
2022-09-14T10:18:04.204Z,23.25
2022-09-14T10:20:30.965Z,23.30
2022-09-14T10:23:18.775Z,23.43
2022-09-14T10:25:45.909Z,23.37
2022-09-14T10:28:29.123Z,23.41
2022-09-14T10:31:01.351Z,23.54
2022-09-14T10:33:29.507Z,23.58
2022-09-14T10:36:37.074Z,23.65
2022-09-14T10:39:11.054Z,23.51
2022-09-14T10:41:51.595Z,23.61
2022-09-14T10:44:57.307Z,23.69
2022-09-14T10:47:44.880Z,23.70
2022-09-14T10:50:33.427Z,23.75
2022-09-14T10:53:09.007Z,24.03
2022-09-14T10:56:02.758Z,23.98
2022-09-14T10:58:44.346Z,24.01
2022-09-14T11:01:32.152Z,24.10
2022-09-14T11:04:04.346Z,24.25
2022-09-14T11:06:39.195Z,24.18
2022-09-14T11:09:46.117Z,24.13
2022-09-14T11:12:24.191Z,25.14
2022-09-14T11:15:14.236Z,24.99
2022-09-14T11:18:15.529Z,24.74
2022-09-14T11:20:50.767Z,24.82
2022-09-14T11:23:28.739Z,24.99
2022-09-14T11:26:07.870Z,25.13
2022-09-14T11:28:41.191Z,25.88
2022-09-14T11:31:15.041Z,25.98
2022-09-14T11:33:50.934Z,26.45
2022-09-14T11:36:20.917Z,25.88
2022-09-14T11:39:01.388Z,26.49
2022-09-14T11:41:49.829Z,26.03
2022-09-14T11:44:21.651Z,26.98
2022-09-14T11:47:21.831Z,27.13
2022-09-14T11:50:28.296Z,26.07
2022-09-14T11:53:12.416Z,26.07
2022-09-14T11:55:44.372Z,26.05
2022-09-14T11:58:20.412Z,25.95
2022-09-14T12:01:25.914Z,25.97
2022-09-14T12:04:01.094Z,26.11
2022-09-14T12:06:30.322Z,25.48
2022-09-14T12:09:22.722Z,25.94
2022-09-14T12:11:54.134Z,26.02
2022-09-14T12:14:27.380Z,25.77
2022-09-14T12:17:17.586Z,25.64
2022-09-14T12:20:24.130Z,25.73
2022-09-14T12:22:50.678Z,25.45
2022-09-14T12:25:23.107Z,25.68
2022-09-14T12:27:50.538Z,25.59
2022-09-14T12:30:40.885Z,25.52
2022-09-14T12:33:33.538Z,25.06
2022-09-14T12:36:04.603Z,25.01
2022-09-14T12:38:31.024Z,25.00
2022-09-14T12:41:02.599Z,24.96
2022-09-14T12:43:35.044Z,24.70
2022-09-14T12:46:13.655Z,24.75
2022-09-14T12:48:49.396Z,24.65
2022-09-14T12:51:21.826Z,24.50
2022-09-14T12:54:04.635Z,24.56
2022-09-14T12:56:37.113Z,24.64
2022-09-14T12:59:19.115Z,24.77
2022-09-14T13:02:00.818Z,24.96
2022-09-14T13:04:33.823Z,24.82
2022-09-14T13:07:02.801Z,25.06
2022-09-14T13:09:31.845Z,25.22
2022-09-14T13:12:05.694Z,24.72
2022-09-14T13:14:39.556Z,25.01
2022-09-14T13:17:13.392Z,24.90
2022-09-14T13:19:39.891Z,25.00
2022-09-14T13:22:18.988Z,25.00
2022-09-14T13:24:47.600Z,25.02
2022-09-14T13:27:26.632Z,24.82
2022-09-14T13:30:19.175Z,24.85
2022-09-14T13:32:49.825Z,24.74
2022-09-14T13:35:28.098Z,24.83
2022-09-14T13:37:55.095Z,25.16
2022-09-14T13:40:28.368Z,25.02
2022-09-14T13:42:55.911Z,24.93
2022-09-14T13:45:22.901Z,24.69
2022-09-14T13:47:50.188Z,24.76
2022-09-14T13:50:17.243Z,24.63
2022-09-14T13:53:01.258Z,24.76
2022-09-14T13:55:43.359Z,24.77
2022-09-14T13:58:09.715Z,24.97
2022-09-14T14:00:59.962Z,24.51
2022-09-14T14:03:38.730Z,24.32
2022-09-14T14:06:22.771Z,24.24
2022-09-14T14:09:05.299Z,24.07
2022-09-14T14:11:52.306Z,23.96
2022-09-14T14:14:30.195Z,23.98
2022-09-14T14:17:22.205Z,23.94
2022-09-14T14:19:54.338Z,23.80
2022-09-14T14:22:28.815Z,23.78
2022-09-14T14:25:12.693Z,23.75
2022-09-14T14:27:46.168Z,23.70
2022-09-14T14:30:18.928Z,23.72
2022-09-14T14:32:56.010Z,23.60
2022-09-14T14:35:25.451Z,23.41
2022-09-14T14:37:52.422Z,23.23
2022-09-14T14:40:19.839Z,23.07
2022-09-14T14:42:47.283Z,22.75
2022-09-14T14:45:19.225Z,22.57
2022-09-14T14:47:47.302Z,22.31
2022-09-14T14:50:19.529Z,22.26
2022-09-14T14:52:46.006Z,22.02
2022-09-14T14:55:12.552Z,21.88
2022-09-14T14:57:38.966Z,21.70
2022-09-14T15:00:13.024Z,21.61
2022-09-14T15:02:39.445Z,21.58
2022-09-14T15:05:06.523Z,21.48
2022-09-14T15:07:35.933Z,21.59
2022-09-14T15:10:05.061Z,21.56
2022-09-14T15:12:32.821Z,21.56
2022-09-14T15:14:59.817Z,21.55
2022-09-14T15:17:26.293Z,21.53
2022-09-14T15:19:52.735Z,21.28
2022-09-14T15:22:19.533Z,21.27
2022-09-14T15:24:45.942Z,21.18
2022-09-14T15:27:12.415Z,21.11
2022-09-14T15:29:39.248Z,21.21
2022-09-14T15:32:05.711Z,21.21
2022-09-14T15:34:32.171Z,21.22
2022-09-14T15:36:58.986Z,21.12
2022-09-14T15:39:27.834Z,20.72
2022-09-14T15:41:55.095Z,20.72
2022-09-14T15:44:21.995Z,20.52
2022-09-14T15:46:49.562Z,20.33
2022-09-14T15:49:26.204Z,20.22
2022-09-14T15:51:55.380Z,19.97
2022-09-14T15:54:23.249Z,20.02
2022-09-14T15:56:55.680Z,19.98
2022-09-14T15:59:23.024Z,19.91
2022-09-14T16:01:49.791Z,19.89
2022-09-14T16:04:16.415Z,20.02
2022-09-14T16:06:42.867Z,19.94
2022-09-14T16:09:11.331Z,19.96
2022-09-14T16:11:39.156Z,19.92
2022-09-14T16:14:07.348Z,20.03
2022-09-14T16:16:35.301Z,20.03
2022-09-14T16:19:09.896Z,20.13
2022-09-14T16:21:37.328Z,20.07
2022-09-14T16:24:06.013Z,20.08
2022-09-14T16:26:37.354Z,20.05
2022-09-14T16:29:06.332Z,20.05
2022-09-14T16:31:37.339Z,20.01
2022-09-14T16:34:06.641Z,19.99
2022-09-14T16:36:37.117Z,20.04
2022-09-14T16:39:07.088Z,19.99
2022-09-14T16:41:33.778Z,20.05
2022-09-14T16:44:02.550Z,20.06
2022-09-14T16:46:31.429Z,20.04
2022-09-14T16:49:01.276Z,20.06
2022-09-14T16:51:29.803Z,20.15
2022-09-14T16:53:58.391Z,20.16
2022-09-14T16:56:28.515Z,20.07
2022-09-14T16:58:56.371Z,19.97
2022-09-14T17:01:31.858Z,20.10
2022-09-14T17:04:05.287Z,20.07
2022-09-14T17:06:32.844Z,20.04
2022-09-14T17:09:01.968Z,19.81
2022-09-14T17:11:30.442Z,19.69
2022-09-14T17:13:57.351Z,19.60
2022-09-14T17:16:26.055Z,19.48
2022-09-14T17:18:56.772Z,19.36
2022-09-14T17:21:26.580Z,19.36
2022-09-14T17:23:53.083Z,19.31
2022-09-14T17:26:21.609Z,19.25
2022-09-14T17:28:49.982Z,19.26
2022-09-14T17:31:19.890Z,19.21
2022-09-14T17:33:47.394Z,19.24
2022-09-14T17:36:15.596Z,19.21
2022-09-14T17:38:43.639Z,19.21
2022-09-14T17:41:13.136Z,19.15
2022-09-14T17:43:40.428Z,19.19
2022-09-14T17:46:10.112Z,19.18
2022-09-14T17:48:38.697Z,19.18
2022-09-14T17:51:15.830Z,19.16
2022-09-14T17:53:44.404Z,19.12
2022-09-14T17:56:13.257Z,19.07
2022-09-14T17:58:40.723Z,19.14
2022-09-14T18:01:15.592Z,19.14
2022-09-14T18:03:44.377Z,19.13
2022-09-14T18:06:12.552Z,18.99
2022-09-14T18:08:40.061Z,18.93
2022-09-14T18:11:15.816Z,18.94
2022-09-14T18:13:44.220Z,18.94
2022-09-14T18:16:11.676Z,18.82
2022-09-14T18:18:38.462Z,18.82
2022-09-14T18:21:05.221Z,18.81
2022-09-14T18:23:32.246Z,18.84
2022-09-14T18:26:01.139Z,18.81
2022-09-14T18:28:27.646Z,18.69
2022-09-14T18:31:07.144Z,18.72
2022-09-14T18:33:34.010Z,18.71
2022-09-14T18:36:00.400Z,18.62
2022-09-14T18:38:27.531Z,18.62
2022-09-14T18:40:53.944Z,18.57
2022-09-14T18:43:20.395Z,18.67
2022-09-14T18:45:47.391Z,18.59
2022-09-14T18:48:14.395Z,18.55
2022-09-14T18:50:42.326Z,18.59
2022-09-14T18:53:09.019Z,18.54
2022-09-14T18:55:35.495Z,18.46
2022-09-14T18:58:02.301Z,18.52
2022-09-14T19:00:28.835Z,18.50
2022-09-14T19:02:56.739Z,18.36
2022-09-14T19:05:24.635Z,18.39
2022-09-14T19:07:51.376Z,18.46
2022-09-14T19:10:17.922Z,18.39
2022-09-14T19:12:44.634Z,18.44
2022-09-14T19:15:12.244Z,18.42
2022-09-14T19:17:39.027Z,18.48
2022-09-14T19:20:06.981Z,18.39
2022-09-14T19:22:33.982Z,18.32
2022-09-14T19:25:00.371Z,18.27
2022-09-14T19:27:27.264Z,18.27
2022-09-14T19:29:53.798Z,18.13
2022-09-14T19:32:20.369Z,18.15
2022-09-14T19:34:46.790Z,18.11
2022-09-14T19:37:13.209Z,18.03
2022-09-14T19:39:39.675Z,17.91
2022-09-14T19:42:06.083Z,17.97
2022-09-14T19:44:32.534Z,17.96
2022-09-14T19:46:58.938Z,17.91
2022-09-14T19:49:25.829Z,17.84
2022-09-14T19:51:53.005Z,17.82
2022-09-14T19:54:19.646Z,17.74
2022-09-14T19:56:46.610Z,17.74
2022-09-14T19:59:13.465Z,17.72
2022-09-14T20:01:40.521Z,17.63
2022-09-14T20:04:08.010Z,17.71
2022-09-14T20:06:42.138Z,17.69
2022-09-14T20:09:11.579Z,17.57
2022-09-14T20:11:40.456Z,17.59
2022-09-14T20:14:09.723Z,17.59
2022-09-14T20:16:39.360Z,17.39
2022-09-14T20:19:11.325Z,17.34
2022-09-14T20:21:38.598Z,17.35
2022-09-14T20:24:22.016Z,17.27
2022-09-14T20:26:50.363Z,17.30
2022-09-14T20:29:18.597Z,17.27
2022-09-14T20:31:45.765Z,17.21
2022-09-14T20:34:13.096Z,17.17
2022-09-14T20:36:39.793Z,17.09
2022-09-14T20:39:06.833Z,17.08
2022-09-14T20:41:34.961Z,17.08
2022-09-14T20:44:01.770Z,17.06
2022-09-14T20:46:40.267Z,17.04
2022-09-14T20:49:11.263Z,17.00
2022-09-14T20:51:38.341Z,16.97
2022-09-14T20:54:06.045Z,16.94
2022-09-14T20:56:34.288Z,16.91
2022-09-14T20:59:03.279Z,16.87
2022-09-14T21:01:32.612Z,16.90
2022-09-14T21:04:09.061Z,16.80
2022-09-14T21:06:37.673Z,16.72
2022-09-14T21:09:05.684Z,16.61
2022-09-14T21:11:32.223Z,16.70
2022-09-14T21:13:58.684Z,16.67
2022-09-14T21:16:33.738Z,16.71
2022-09-14T21:19:02.980Z,16.66
2022-09-14T21:21:30.457Z,16.63
2022-09-14T21:23:58.527Z,16.63
2022-09-14T21:26:26.271Z,16.67
2022-09-14T21:28:58.322Z,16.57
2022-09-14T21:31:28.708Z,16.58
2022-09-14T21:33:58.914Z,16.51
2022-09-14T21:36:31.880Z,16.57
2022-09-14T21:39:00.083Z,16.58
2022-09-14T21:41:29.224Z,16.60
2022-09-14T21:43:57.294Z,16.52
2022-09-14T21:46:25.106Z,16.45
2022-09-14T21:48:52.368Z,16.52
2022-09-14T21:51:20.697Z,16.60
2022-09-14T21:53:54.503Z,16.50
2022-09-14T21:56:23.388Z,16.58
2022-09-14T21:58:56.727Z,16.62
2022-09-14T22:01:23.949Z,16.54
2022-09-14T22:03:51.964Z,16.60
2022-09-14T22:06:20.120Z,16.70
2022-09-14T22:08:46.930Z,16.65
2022-09-14T22:11:20.039Z,16.69
2022-09-14T22:13:56.623Z,16.67
2022-09-14T22:16:26.345Z,16.66
2022-09-14T22:18:55.486Z,16.70
2022-09-14T22:21:24.078Z,16.71
2022-09-14T22:23:56.495Z,16.82
2022-09-14T22:26:23.483Z,16.80
2022-09-14T22:28:51.485Z,16.85
2022-09-14T22:31:20.197Z,16.77
2022-09-14T22:33:47.077Z,16.74
2022-09-14T22:36:14.922Z,16.71
2022-09-14T22:38:41.581Z,16.67
2022-09-14T22:41:10.622Z,16.63
2022-09-14T22:43:38.219Z,16.59
2022-09-14T22:46:05.932Z,16.61
2022-09-14T22:48:32.704Z,16.67
2022-09-14T22:50:59.955Z,16.64
2022-09-14T22:53:28.169Z,16.70
2022-09-14T22:55:55.139Z,16.70
2022-09-14T22:58:24.135Z,16.74
2022-09-14T23:00:51.147Z,16.72
2022-09-14T23:03:18.382Z,16.63
2022-09-14T23:05:50.217Z,16.63
2022-09-14T23:08:17.015Z,16.69
2022-09-14T23:10:43.411Z,16.59
2022-09-14T23:13:10.120Z,16.63
2022-09-14T23:15:40.004Z,16.60
2022-09-14T23:18:07.441Z,16.50
2022-09-14T23:20:42.160Z,16.38
2022-09-14T23:23:09.716Z,16.42
2022-09-14T23:25:38.244Z,16.36
2022-09-14T23:28:06.262Z,16.37
2022-09-14T23:30:33.782Z,16.37
2022-09-14T23:33:00.826Z,16.35
2022-09-14T23:35:28.156Z,16.38
2022-09-14T23:37:55.099Z,16.32
2022-09-14T23:40:22.268Z,16.42
2022-09-14T23:42:48.902Z,16.38
2022-09-14T23:45:15.912Z,16.36
2022-09-14T23:47:42.341Z,16.35
2022-09-14T23:50:09.311Z,16.34
2022-09-14T23:52:36.260Z,16.42
2022-09-14T23:55:02.760Z,16.45
2022-09-14T23:57:29.239Z,16.52
2022-09-14T23:59:55.643Z,16.50
